sensor_id;sensor_type;location;lat;lon;timestamp;P1;durP1;ratioP1;P2;durP2;ratioP2
8478;SDS011;4276;49.354;6.804;2023-07-24T00:01:20;2.60;;;2.40;;
8478;SDS011;4276;49.354;6.804;2023-07-24T00:03:46;2.80;;;2.03;;
8478;SDS011;4276;49.354;6.804;2023-07-24T00:06:13;3.70;;;2.30;;
8478;SDS011;4276;49.354;6.804;2023-07-24T00:08:39;2.38;;;2.28;;
8478;SDS011;4276;49.354;6.804;2023-07-24T00:11:09;2.15;;;2.05;;
8478;SDS011;4276;49.354;6.804;2023-07-24T00:13:35;2.30;;;2.10;;
8478;SDS011;4276;49.354;6.804;2023-07-24T00:16:06;2.10;;;2.00;;
8478;SDS011;4276;49.354;6.804;2023-07-24T00:18:33;2.10;;;2.00;;
8478;SDS011;4276;49.354;6.804;2023-07-24T00:21:00;3.15;;;2.53;;
8478;SDS011;4276;49.354;6.804;2023-07-24T00:23:26;2.00;;;1.90;;
8478;SDS011;4276;49.354;6.804;2023-07-24T00:25:53;2.40;;;2.30;;
8478;SDS011;4276;49.354;6.804;2023-07-24T00:28:20;2.92;;;2.70;;
8478;SDS011;4276;49.354;6.804;2023-07-24T00:30:46;2.70;;;2.50;;
8478;SDS011;4276;49.354;6.804;2023-07-24T00:33:13;2.53;;;2.33;;
8478;SDS011;4276;49.354;6.804;2023-07-24T00:35:39;2.55;;;2.35;;
8478;SDS011;4276;49.354;6.804;2023-07-24T00:38:06;2.75;;;2.55;;
8478;SDS011;4276;49.354;6.804;2023-07-24T00:40:32;3.15;;;2.45;;
8478;SDS011;4276;49.354;6.804;2023-07-24T00:42:59;2.45;;;2.25;;
8478;SDS011;4276;49.354;6.804;2023-07-24T00:45:25;2.50;;;2.30;;
8478;SDS011;4276;49.354;6.804;2023-07-24T00:47:52;2.47;;;2.08;;
8478;SDS011;4276;49.354;6.804;2023-07-24T00:50:18;2.20;;;2.00;;
8478;SDS011;4276;49.354;6.804;2023-07-24T00:52:45;2.72;;;2.53;;
8478;SDS011;4276;49.354;6.804;2023-07-24T00:55:13;3.28;;;2.50;;
8478;SDS011;4276;49.354;6.804;2023-07-24T00:57:40;2.55;;;2.35;;
8478;SDS011;4276;49.354;6.804;2023-07-24T01:00:06;2.58;;;2.38;;
8478;SDS011;4276;49.354;6.804;2023-07-24T01:02:34;2.78;;;2.40;;
8478;SDS011;4276;49.354;6.804;2023-07-24T01:05:01;2.60;;;2.40;;
8478;SDS011;4276;49.354;6.804;2023-07-24T01:07:27;2.60;;;2.40;;
8478;SDS011;4276;49.354;6.804;2023-07-24T01:09:54;2.47;;;2.28;;
8478;SDS011;4276;49.354;6.804;2023-07-24T01:15:48;2.50;;;2.30;;
8478;SDS011;4276;49.354;6.804;2023-07-24T01:17:52;3.38;;;2.40;;
8478;SDS011;4276;49.354;6.804;2023-07-24T01:20:23;3.97;;;2.22;;
8478;SDS011;4276;49.354;6.804;2023-07-24T01:25:48;3.17;;;2.50;;
8478;SDS011;4276;49.354;6.804;2023-07-24T01:28:28;2.50;;;2.30;;
8478;SDS011;4276;49.354;6.804;2023-07-24T01:30:55;2.58;;;2.30;;
8478;SDS011;4276;49.354;6.804;2023-07-24T01:33:22;5.95;;;2.63;;
8478;SDS011;4276;49.354;6.804;2023-07-24T01:35:57;2.55;;;2.38;;
8478;SDS011;4276;49.354;6.804;2023-07-24T01:38:25;2.58;;;2.38;;
8478;SDS011;4276;49.354;6.804;2023-07-24T01:40:53;2.33;;;2.22;;
8478;SDS011;4276;49.354;6.804;2023-07-24T01:43:20;2.72;;;2.53;;
8478;SDS011;4276;49.354;6.804;2023-07-24T01:45:46;3.00;;;2.80;;
8478;SDS011;4276;49.354;6.804;2023-07-24T01:48:13;2.92;;;2.40;;
8478;SDS011;4276;49.354;6.804;2023-07-24T01:50:40;2.55;;;2.08;;
8478;SDS011;4276;49.354;6.804;2023-07-24T01:53:06;2.50;;;2.30;;
8478;SDS011;4276;49.354;6.804;2023-07-24T01:55:32;2.30;;;2.20;;
8478;SDS011;4276;49.354;6.804;2023-07-24T01:57:59;3.30;;;2.35;;
8478;SDS011;4276;49.354;6.804;2023-07-24T02:00:25;2.50;;;2.30;;
8478;SDS011;4276;49.354;6.804;2023-07-24T02:02:52;2.60;;;2.40;;
8478;SDS011;4276;49.354;6.804;2023-07-24T02:05:18;2.83;;;2.55;;
8478;SDS011;4276;49.354;6.804;2023-07-24T02:07:45;2.65;;;2.45;;
8478;SDS011;4276;49.354;6.804;2023-07-24T02:10:11;2.40;;;2.20;;
8478;SDS011;4276;49.354;6.804;2023-07-24T02:12:38;3.78;;;2.40;;
8478;SDS011;4276;49.354;6.804;2023-07-24T02:15:05;2.78;;;2.58;;
8478;SDS011;4276;49.354;6.804;2023-07-24T02:17:32;2.63;;;2.42;;
8478;SDS011;4276;49.354;6.804;2023-07-24T02:19:58;2.22;;;2.03;;
8478;SDS011;4276;49.354;6.804;2023-07-24T02:22:25;2.80;;;2.60;;
8478;SDS011;4276;49.354;6.804;2023-07-24T02:24:51;2.80;;;2.30;;
8478;SDS011;4276;49.354;6.804;2023-07-24T02:27:25;3.58;;;2.50;;
8478;SDS011;4276;49.354;6.804;2023-07-24T02:29:53;2.75;;;2.55;;
8478;SDS011;4276;49.354;6.804;2023-07-24T02:32:20;2.50;;;2.30;;
8478;SDS011;4276;49.354;6.804;2023-07-24T02:34:49;2.88;;;2.55;;
8478;SDS011;4276;49.354;6.804;2023-07-24T02:37:16;2.65;;;2.45;;
8478;SDS011;4276;49.354;6.804;2023-07-24T02:39:43;2.78;;;2.58;;
8478;SDS011;4276;49.354;6.804;2023-07-24T02:42:09;2.40;;;2.30;;
8478;SDS011;4276;49.354;6.804;2023-07-24T02:44:36;3.38;;;2.45;;
8478;SDS011;4276;49.354;6.804;2023-07-24T02:47:05;2.78;;;2.53;;
8478;SDS011;4276;49.354;6.804;2023-07-24T02:49:32;2.88;;;2.67;;
8478;SDS011;4276;49.354;6.804;2023-07-24T02:51:59;2.70;;;2.50;;
8478;SDS011;4276;49.354;6.804;2023-07-24T02:54:25;2.72;;;2.53;;
8478;SDS011;4276;49.354;6.804;2023-07-24T02:56:52;3.08;;;2.78;;
8478;SDS011;4276;49.354;6.804;2023-07-24T02:59:19;3.05;;;2.83;;
8478;SDS011;4276;49.354;6.804;2023-07-24T03:01:45;3.05;;;2.80;;
8478;SDS011;4276;49.354;6.804;2023-07-24T03:04:12;2.88;;;2.67;;
8478;SDS011;4276;49.354;6.804;2023-07-24T03:06:39;2.90;;;2.70;;
8478;SDS011;4276;49.354;6.804;2023-07-24T03:09:05;2.88;;;2.65;;
8478;SDS011;4276;49.354;6.804;2023-07-24T03:11:32;3.58;;;3.28;;
8478;SDS011;4276;49.354;6.804;2023-07-24T03:13:59;3.00;;;2.80;;
8478;SDS011;4276;49.354;6.804;2023-07-24T03:16:25;3.22;;;2.80;;
8478;SDS011;4276;49.354;6.804;2023-07-24T03:18:52;3.45;;;2.80;;
8478;SDS011;4276;49.354;6.804;2023-07-24T03:21:19;2.70;;;2.50;;
8478;SDS011;4276;49.354;6.804;2023-07-24T03:23:46;3.15;;;2.90;;
8478;SDS011;4276;49.354;6.804;2023-07-24T03:26:13;3.83;;;3.03;;
8478;SDS011;4276;49.354;6.804;2023-07-24T03:28:39;3.05;;;2.85;;
8478;SDS011;4276;49.354;6.804;2023-07-24T03:31:05;3.20;;;2.92;;
8478;SDS011;4276;49.354;6.804;2023-07-24T03:33:32;2.90;;;2.70;;
8478;SDS011;4276;49.354;6.804;2023-07-24T03:35:59;3.00;;;2.70;;
8478;SDS011;4276;49.354;6.804;2023-07-24T03:38:25;3.85;;;2.70;;
8478;SDS011;4276;49.354;6.804;2023-07-24T03:40:52;3.10;;;2.78;;
8478;SDS011;4276;49.354;6.804;2023-07-24T03:43:18;2.90;;;2.70;;
8478;SDS011;4276;49.354;6.804;2023-07-24T03:45:45;2.60;;;2.40;;
8478;SDS011;4276;49.354;6.804;2023-07-24T03:48:11;3.03;;;2.80;;
8478;SDS011;4276;49.354;6.804;2023-07-24T03:50:38;3.13;;;2.92;;
8478;SDS011;4276;49.354;6.804;2023-07-24T03:53:06;3.25;;;2.67;;
8478;SDS011;4276;49.354;6.804;2023-07-24T03:55:33;3.08;;;2.78;;
8478;SDS011;4276;49.354;6.804;2023-07-24T03:57:59;2.67;;;2.47;;
8478;SDS011;4276;49.354;6.804;2023-07-24T04:00:26;3.30;;;3.00;;
8478;SDS011;4276;49.354;6.804;2023-07-24T04:02:52;3.28;;;2.50;;
8478;SDS011;4276;49.354;6.804;2023-07-24T04:05:19;2.75;;;2.55;;
8478;SDS011;4276;49.354;6.804;2023-07-24T04:07:45;3.72;;;2.78;;
8478;SDS011;4276;49.354;6.804;2023-07-24T04:10:12;2.78;;;2.58;;
8478;SDS011;4276;49.354;6.804;2023-07-24T04:12:38;3.08;;;2.88;;
8478;SDS011;4276;49.354;6.804;2023-07-24T04:15:05;3.08;;;2.78;;
8478;SDS011;4276;49.354;6.804;2023-07-24T04:17:32;3.17;;;2.97;;
8478;SDS011;4276;49.354;6.804;2023-07-24T04:19:59;3.13;;;2.92;;
8478;SDS011;4276;49.354;6.804;2023-07-24T04:22:26;3.13;;;2.83;;
8478;SDS011;4276;49.354;6.804;2023-07-24T04:24:52;3.10;;;2.83;;
8478;SDS011;4276;49.354;6.804;2023-07-24T04:27:19;3.13;;;2.90;;
8478;SDS011;4276;49.354;6.804;2023-07-24T04:29:45;3.00;;;2.80;;
8478;SDS011;4276;49.354;6.804;2023-07-24T04:32:12;2.97;;;2.75;;
8478;SDS011;4276;49.354;6.804;2023-07-24T04:34:38;3.20;;;2.95;;
8478;SDS011;4276;49.354;6.804;2023-07-24T04:37:05;2.80;;;2.58;;
8478;SDS011;4276;49.354;6.804;2023-07-24T04:39:32;3.33;;;2.88;;
8478;SDS011;4276;49.354;6.804;2023-07-24T04:41:59;3.47;;;3.15;;
8478;SDS011;4276;49.354;6.804;2023-07-24T04:44:26;3.15;;;2.85;;
8478;SDS011;4276;49.354;6.804;2023-07-24T04:46:52;4.03;;;3.28;;
8478;SDS011;4276;49.354;6.804;2023-07-24T04:49:19;3.45;;;3.15;;
8478;SDS011;4276;49.354;6.804;2023-07-24T04:51:45;3.33;;;3.03;;
8478;SDS011;4276;49.354;6.804;2023-07-24T04:54:12;3.13;;;2.88;;
8478;SDS011;4276;49.354;6.804;2023-07-24T04:56:38;3.20;;;2.90;;
8478;SDS011;4276;49.354;6.804;2023-07-24T04:59:05;3.42;;;3.13;;
8478;SDS011;4276;49.354;6.804;2023-07-24T05:01:31;3.10;;;2.83;;
8478;SDS011;4276;49.354;6.804;2023-07-24T05:03:58;3.13;;;2.72;;
8478;SDS011;4276;49.354;6.804;2023-07-24T05:06:24;3.88;;;3.55;;
8478;SDS011;4276;49.354;6.804;2023-07-24T05:08:52;3.67;;;3.38;;
8478;SDS011;4276;49.354;6.804;2023-07-24T05:11:19;3.45;;;3.25;;
8478;SDS011;4276;49.354;6.804;2023-07-24T05:13:45;3.65;;;3.30;;
8478;SDS011;4276;49.354;6.804;2023-07-24T05:16:12;3.45;;;3.15;;
8478;SDS011;4276;49.354;6.804;2023-07-24T05:18:38;3.63;;;3.33;;
8478;SDS011;4276;49.354;6.804;2023-07-24T05:21:06;3.35;;;3.10;;
8478;SDS011;4276;49.354;6.804;2023-07-24T05:23:33;3.45;;;3.15;;
8478;SDS011;4276;49.354;6.804;2023-07-24T05:26:00;3.60;;;3.30;;
8478;SDS011;4276;49.354;6.804;2023-07-24T05:28:28;4.80;;;3.28;;
8478;SDS011;4276;49.354;6.804;2023-07-24T05:30:55;3.80;;;3.50;;
8478;SDS011;4276;49.354;6.804;2023-07-24T05:33:25;3.83;;;3.50;;
8478;SDS011;4276;49.354;6.804;2023-07-24T05:35:52;3.60;;;3.30;;
8478;SDS011;4276;49.354;6.804;2023-07-24T05:38:23;3.17;;;2.97;;
8478;SDS011;4276;49.354;6.804;2023-07-24T05:40:56;3.58;;;3.22;;
8478;SDS011;4276;49.354;6.804;2023-07-24T05:43:27;4.55;;;3.47;;
8478;SDS011;4276;49.354;6.804;2023-07-24T05:45:54;3.50;;;3.20;;
8478;SDS011;4276;49.354;6.804;2023-07-24T05:48:21;3.80;;;3.50;;
8478;SDS011;4276;49.354;6.804;2023-07-24T05:50:48;5.60;;;3.60;;
8478;SDS011;4276;49.354;6.804;2023-07-24T05:53:15;5.18;;;3.55;;
8478;SDS011;4276;49.354;6.804;2023-07-24T05:55:42;5.18;;;3.78;;
8478;SDS011;4276;49.354;6.804;2023-07-24T05:58:09;4.43;;;3.72;;
8478;SDS011;4276;49.354;6.804;2023-07-24T06:00:38;4.45;;;3.30;;
8478;SDS011;4276;49.354;6.804;2023-07-24T06:03:05;3.63;;;3.33;;
8478;SDS011;4276;49.354;6.804;2023-07-24T06:05:34;4.13;;;3.72;;
8478;SDS011;4276;49.354;6.804;2023-07-24T06:08:00;4.25;;;3.65;;
8478;SDS011;4276;49.354;6.804;2023-07-24T06:10:27;4.65;;;3.60;;
8478;SDS011;4276;49.354;6.804;2023-07-24T06:12:53;3.67;;;3.22;;
8478;SDS011;4276;49.354;6.804;2023-07-24T06:15:20;3.92;;;3.50;;
8478;SDS011;4276;49.354;6.804;2023-07-24T06:17:46;4.63;;;4.22;;
8478;SDS011;4276;49.354;6.804;2023-07-24T06:20:13;5.60;;;4.18;;
8478;SDS011;4276;49.354;6.804;2023-07-24T06:22:39;7.07;;;4.60;;
8478;SDS011;4276;49.354;6.804;2023-07-24T06:25:06;4.88;;;4.38;;
8478;SDS011;4276;49.354;6.804;2023-07-24T06:27:33;5.25;;;4.57;;
8478;SDS011;4276;49.354;6.804;2023-07-24T06:29:59;6.97;;;5.10;;
8478;SDS011;4276;49.354;6.804;2023-07-24T06:32:39;4.80;;;4.32;;
8478;SDS011;4276;49.354;6.804;2023-07-24T06:35:06;4.03;;;3.63;;
8478;SDS011;4276;49.354;6.804;2023-07-24T06:37:33;7.10;;;4.25;;
8478;SDS011;4276;49.354;6.804;2023-07-24T06:39:59;4.47;;;3.53;;
8478;SDS011;4276;49.354;6.804;2023-07-24T06:42:26;3.47;;;2.90;;
8478;SDS011;4276;49.354;6.804;2023-07-24T06:44:52;3.65;;;3.33;;
8478;SDS011;4276;49.354;6.804;2023-07-24T06:47:19;3.10;;;2.80;;
8478;SDS011;4276;49.354;6.804;2023-07-24T06:49:45;3.22;;;2.85;;
8478;SDS011;4276;49.354;6.804;2023-07-24T06:52:13;3.80;;;3.50;;
8478;SDS011;4276;49.354;6.804;2023-07-24T06:54:40;3.53;;;3.22;;
8478;SDS011;4276;49.354;6.804;2023-07-24T06:57:06;4.38;;;3.13;;
8478;SDS011;4276;49.354;6.804;2023-07-24T06:59:33;3.70;;;3.40;;
8478;SDS011;4276;49.354;6.804;2023-07-24T07:01:59;4.25;;;3.47;;
8478;SDS011;4276;49.354;6.804;2023-07-24T07:04:26;3.20;;;2.90;;
8478;SDS011;4276;49.354;6.804;2023-07-24T07:06:52;3.42;;;2.95;;
8478;SDS011;4276;49.354;6.804;2023-07-24T07:09:19;2.80;;;2.60;;
8478;SDS011;4276;49.354;6.804;2023-07-24T07:11:45;3.20;;;3.00;;
8478;SDS011;4276;49.354;6.804;2023-07-24T07:14:12;3.00;;;2.80;;
8478;SDS011;4276;49.354;6.804;2023-07-24T07:16:39;3.22;;;2.60;;
8478;SDS011;4276;49.354;6.804;2023-07-24T07:19:05;3.10;;;2.80;;
8478;SDS011;4276;49.354;6.804;2023-07-24T07:21:32;3.38;;;3.08;;
8478;SDS011;4276;49.354;6.804;2023-07-24T07:23:58;3.40;;;3.00;;
8478;SDS011;4276;49.354;6.804;2023-07-24T07:26:25;3.30;;;3.00;;
8478;SDS011;4276;49.354;6.804;2023-07-24T07:28:51;3.58;;;3.20;;
8478;SDS011;4276;49.354;6.804;2023-07-24T07:31:18;4.25;;;2.88;;
8478;SDS011;4276;49.354;6.804;2023-07-24T07:33:44;3.33;;;3.00;;
8478;SDS011;4276;49.354;6.804;2023-07-24T07:36:11;3.05;;;2.85;;
8478;SDS011;4276;49.354;6.804;2023-07-24T07:38:38;4.15;;;3.45;;
8478;SDS011;4276;49.354;6.804;2023-07-24T07:41:06;4.35;;;2.80;;
8478;SDS011;4276;49.354;6.804;2023-07-24T07:43:32;3.58;;;3.28;;
8478;SDS011;4276;49.354;6.804;2023-07-24T07:45:59;4.47;;;3.13;;
8478;SDS011;4276;49.354;6.804;2023-07-24T07:48:25;4.20;;;3.33;;
8478;SDS011;4276;49.354;6.804;2023-07-24T07:50:52;3.33;;;2.97;;
8478;SDS011;4276;49.354;6.804;2023-07-24T07:53:18;3.53;;;3.33;;
8478;SDS011;4276;49.354;6.804;2023-07-24T07:55:45;4.68;;;3.40;;
8478;SDS011;4276;49.354;6.804;2023-07-24T07:58:12;3.95;;;3.58;;
8478;SDS011;4276;49.354;6.804;2023-07-24T08:00:38;3.75;;;3.40;;
8478;SDS011;4276;49.354;6.804;2023-07-24T08:03:06;3.85;;;3.55;;
8478;SDS011;4276;49.354;6.804;2023-07-24T08:05:32;4.15;;;3.70;;
8478;SDS011;4276;49.354;6.804;2023-07-24T08:07:59;5.47;;;3.33;;
8478;SDS011;4276;49.354;6.804;2023-07-24T08:10:28;3.65;;;3.28;;
8478;SDS011;4276;49.354;6.804;2023-07-24T08:12:54;3.97;;;3.67;;
8478;SDS011;4276;49.354;6.804;2023-07-24T08:15:21;3.83;;;3.53;;
8478;SDS011;4276;49.354;6.804;2023-07-24T08:17:47;3.67;;;3.38;;
8478;SDS011;4276;49.354;6.804;2023-07-24T08:20:14;3.90;;;3.60;;
8478;SDS011;4276;49.354;6.804;2023-07-24T08:22:40;4.25;;;3.85;;
8478;SDS011;4276;49.354;6.804;2023-07-24T08:25:07;4.05;;;3.65;;
8478;SDS011;4276;49.354;6.804;2023-07-24T08:27:33;3.95;;;3.65;;
8478;SDS011;4276;49.354;6.804;2023-07-24T08:30:20;3.83;;;3.53;;
8478;SDS011;4276;49.354;6.804;2023-07-24T08:32:46;4.28;;;3.88;;
8478;SDS011;4276;49.354;6.804;2023-07-24T08:35:13;3.85;;;3.40;;
8478;SDS011;4276;49.354;6.804;2023-07-24T08:37:42;4.22;;;3.88;;
8478;SDS011;4276;49.354;6.804;2023-07-24T08:40:09;4.43;;;3.42;;
8478;SDS011;4276;49.354;6.804;2023-07-24T08:42:39;3.88;;;3.47;;
8478;SDS011;4276;49.354;6.804;2023-07-24T08:45:11;3.90;;;3.50;;
8478;SDS011;4276;49.354;6.804;2023-07-24T08:47:41;4.43;;;3.65;;
8478;SDS011;4276;49.354;6.804;2023-07-24T08:50:09;4.05;;;3.72;;
8478;SDS011;4276;49.354;6.804;2023-07-24T08:52:38;4.22;;;3.70;;
8478;SDS011;4276;49.354;6.804;2023-07-24T08:55:05;4.05;;;3.60;;
8478;SDS011;4276;49.354;6.804;2023-07-24T08:57:33;4.28;;;3.92;;
8478;SDS011;4276;49.354;6.804;2023-07-24T08:59:59;4.65;;;3.78;;
8478;SDS011;4276;49.354;6.804;2023-07-24T09:02:31;3.97;;;3.67;;
8478;SDS011;4276;49.354;6.804;2023-07-24T09:04:59;4.68;;;3.78;;
8478;SDS011;4276;49.354;6.804;2023-07-24T09:07:25;3.92;;;3.53;;
8478;SDS011;4276;49.354;6.804;2023-07-24T09:09:52;4.22;;;3.47;;
8478;SDS011;4276;49.354;6.804;2023-07-24T09:12:19;4.40;;;4.00;;
8478;SDS011;4276;49.354;6.804;2023-07-24T09:14:45;4.22;;;3.40;;
8478;SDS011;4276;49.354;6.804;2023-07-24T09:17:12;3.80;;;3.50;;
8478;SDS011;4276;49.354;6.804;2023-07-24T09:19:38;5.05;;;3.63;;
8478;SDS011;4276;49.354;6.804;2023-07-24T09:22:09;3.97;;;3.67;;
8478;SDS011;4276;49.354;6.804;2023-07-24T09:24:53;3.55;;;3.30;;
8478;SDS011;4276;49.354;6.804;2023-07-24T09:27:24;3.53;;;3.30;;
8478;SDS011;4276;49.354;6.804;2023-07-24T09:29:52;4.55;;;3.58;;
8478;SDS011;4276;49.354;6.804;2023-07-24T09:32:22;3.88;;;3.58;;
8478;SDS011;4276;49.354;6.804;2023-07-24T09:34:49;4.13;;;3.78;;
8478;SDS011;4276;49.354;6.804;2023-07-24T09:37:44;3.88;;;3.58;;
8478;SDS011;4276;49.354;6.804;2023-07-24T09:40:12;4.18;;;3.88;;
8478;SDS011;4276;49.354;6.804;2023-07-24T09:42:41;4.43;;;3.65;;
8478;SDS011;4276;49.354;6.804;2023-07-24T09:45:27;4.03;;;3.70;;
8478;SDS011;4276;49.354;6.804;2023-07-24T09:47:54;4.85;;;3.50;;
8478;SDS011;4276;49.354;6.804;2023-07-24T09:50:30;3.70;;;3.40;;
8478;SDS011;4276;49.354;6.804;2023-07-24T09:52:57;5.45;;;4.30;;
8478;SDS011;4276;49.354;6.804;2023-07-24T09:55:25;4.10;;;3.72;;
8478;SDS011;4276;49.354;6.804;2023-07-24T09:57:56;4.43;;;4.13;;
8478;SDS011;4276;49.354;6.804;2023-07-24T10:00:23;4.97;;;3.50;;
8478;SDS011;4276;49.354;6.804;2023-07-24T10:02:50;4.40;;;4.03;;
8478;SDS011;4276;49.354;6.804;2023-07-24T10:05:17;4.45;;;4.07;;
8478;SDS011;4276;49.354;6.804;2023-07-24T10:07:44;5.32;;;4.30;;
8478;SDS011;4276;49.354;6.804;2023-07-24T10:10:10;4.50;;;4.10;;
8478;SDS011;4276;49.354;6.804;2023-07-24T10:12:38;4.10;;;3.80;;
8478;SDS011;4276;49.354;6.804;2023-07-24T10:15:05;7.00;;;4.40;;
8478;SDS011;4276;49.354;6.804;2023-07-24T10:17:38;4.10;;;3.80;;
8478;SDS011;4276;49.354;6.804;2023-07-24T10:20:07;4.78;;;4.38;;
8478;SDS011;4276;49.354;6.804;2023-07-24T10:22:35;3.92;;;3.63;;
8478;SDS011;4276;49.354;6.804;2023-07-24T10:25:04;4.50;;;4.10;;
8478;SDS011;4276;49.354;6.804;2023-07-24T10:27:31;4.72;;;4.00;;
8478;SDS011;4276;49.354;6.804;2023-07-24T10:30:00;5.00;;;4.10;;
8478;SDS011;4276;49.354;6.804;2023-07-24T10:32:47;4.07;;;3.78;;
8478;SDS011;4276;49.354;6.804;2023-07-24T10:35:21;4.18;;;3.88;;
8478;SDS011;4276;49.354;6.804;2023-07-24T10:37:58;3.85;;;3.50;;
8478;SDS011;4276;49.354;6.804;2023-07-24T10:40:26;3.63;;;3.40;;
8478;SDS011;4276;49.354;6.804;2023-07-24T10:43:09;3.97;;;3.70;;
8478;SDS011;4276;49.354;6.804;2023-07-24T10:45:40;3.67;;;3.38;;
8478;SDS011;4276;49.354;6.804;2023-07-24T10:48:18;5.00;;;3.60;;
8478;SDS011;4276;49.354;6.804;2023-07-24T10:50:46;3.75;;;3.45;;
8478;SDS011;4276;49.354;6.804;2023-07-24T10:53:19;4.00;;;3.65;;
8478;SDS011;4276;49.354;6.804;2023-07-24T10:55:47;4.00;;;3.70;;
8478;SDS011;4276;49.354;6.804;2023-07-24T10:58:14;6.15;;;3.50;;
8478;SDS011;4276;49.354;6.804;2023-07-24T11:00:41;3.95;;;3.65;;
8478;SDS011;4276;49.354;6.804;2023-07-24T11:03:11;3.92;;;3.63;;
8478;SDS011;4276;49.354;6.804;2023-07-24T11:05:39;4.78;;;4.22;;
8478;SDS011;4276;49.354;6.804;2023-07-24T11:08:12;4.28;;;3.97;;
8478;SDS011;4276;49.354;6.804;2023-07-24T11:10:48;4.25;;;3.95;;
8478;SDS011;4276;49.354;6.804;2023-07-24T11:13:16;4.18;;;3.88;;
8478;SDS011;4276;49.354;6.804;2023-07-24T11:15:43;3.70;;;3.50;;
8478;SDS011;4276;49.354;6.804;2023-07-24T11:18:10;4.05;;;3.65;;
8478;SDS011;4276;49.354;6.804;2023-07-24T11:20:37;5.05;;;4.40;;
8478;SDS011;4276;49.354;6.804;2023-07-24T11:23:05;4.40;;;4.00;;
8478;SDS011;4276;49.354;6.804;2023-07-24T11:25:31;4.45;;;4.05;;
8478;SDS011;4276;49.354;6.804;2023-07-24T11:27:58;5.18;;;3.80;;
8478;SDS011;4276;49.354;6.804;2023-07-24T11:30:25;4.47;;;4.07;;
8478;SDS011;4276;49.354;6.804;2023-07-24T11:32:51;4.10;;;3.80;;
8478;SDS011;4276;49.354;6.804;2023-07-24T11:35:19;4.07;;;3.78;;
8478;SDS011;4276;49.354;6.804;2023-07-24T11:37:45;3.47;;;3.28;;
8478;SDS011;4276;49.354;6.804;2023-07-24T11:40:12;3.58;;;3.00;;
8478;SDS011;4276;49.354;6.804;2023-07-24T11:42:42;3.25;;;3.05;;
8478;SDS011;4276;49.354;6.804;2023-07-24T11:45:09;3.20;;;3.00;;
8478;SDS011;4276;49.354;6.804;2023-07-24T11:47:46;3.15;;;2.95;;
8478;SDS011;4276;49.354;6.804;2023-07-24T11:50:14;3.75;;;3.30;;
8478;SDS011;4276;49.354;6.804;2023-07-24T11:55:10;3.30;;;3.05;;
8478;SDS011;4276;49.354;6.804;2023-07-24T11:57:40;3.10;;;2.90;;
8478;SDS011;4276;49.354;6.804;2023-07-24T12:00:18;3.38;;;3.00;;
8478;SDS011;4276;49.354;6.804;2023-07-24T12:02:45;3.47;;;3.17;;
8478;SDS011;4276;49.354;6.804;2023-07-24T12:05:12;3.25;;;3.05;;
8478;SDS011;4276;49.354;6.804;2023-07-24T12:07:38;3.25;;;3.00;;
8478;SDS011;4276;49.354;6.804;2023-07-24T12:10:05;3.70;;;3.10;;
8478;SDS011;4276;49.354;6.804;2023-07-24T12:15:13;2.60;;;2.40;;
8478;SDS011;4276;49.354;6.804;2023-07-24T12:17:40;2.45;;;2.25;;
8478;SDS011;4276;49.354;6.804;2023-07-24T12:20:07;2.10;;;2.00;;
8478;SDS011;4276;49.354;6.804;2023-07-24T12:22:38;2.00;;;1.90;;
8478;SDS011;4276;49.354;6.804;2023-07-24T12:25:05;2.25;;;2.08;;
8478;SDS011;4276;49.354;6.804;2023-07-24T12:27:32;2.25;;;2.05;;
8478;SDS011;4276;49.354;6.804;2023-07-24T12:29:59;2.35;;;2.22;;
8478;SDS011;4276;49.354;6.804;2023-07-24T12:32:26;2.10;;;2.00;;
8478;SDS011;4276;49.354;6.804;2023-07-24T12:34:53;2.30;;;2.10;;
8478;SDS011;4276;49.354;6.804;2023-07-24T12:37:20;2.25;;;2.08;;
8478;SDS011;4276;49.354;6.804;2023-07-24T12:39:47;2.67;;;2.38;;
8478;SDS011;4276;49.354;6.804;2023-07-24T12:42:14;2.20;;;2.10;;
8478;SDS011;4276;49.354;6.804;2023-07-24T12:44:41;2.10;;;2.00;;
8478;SDS011;4276;49.354;6.804;2023-07-24T12:47:08;2.50;;;2.30;;
8478;SDS011;4276;49.354;6.804;2023-07-24T12:49:34;2.55;;;2.35;;
8478;SDS011;4276;49.354;6.804;2023-07-24T12:52:01;2.38;;;2.20;;
8478;SDS011;4276;49.354;6.804;2023-07-24T12:54:28;1.80;;;1.70;;
8478;SDS011;4276;49.354;6.804;2023-07-24T12:57:15;2.13;;;1.95;;
8478;SDS011;4276;49.354;6.804;2023-07-24T12:59:41;2.67;;;1.67;;
8478;SDS011;4276;49.354;6.804;2023-07-24T13:02:08;1.45;;;1.35;;
8478;SDS011;4276;49.354;6.804;2023-07-24T13:04:34;1.88;;;1.77;;
8478;SDS011;4276;49.354;6.804;2023-07-24T13:07:01;1.70;;;1.60;;
8478;SDS011;4276;49.354;6.804;2023-07-24T13:09:28;2.17;;;1.63;;
8478;SDS011;4276;49.354;6.804;2023-07-24T13:11:55;5.22;;;2.67;;
8478;SDS011;4276;49.354;6.804;2023-07-24T13:14:21;2.83;;;1.60;;
8478;SDS011;4276;49.354;6.804;2023-07-24T13:16:50;1.75;;;1.52;;
8478;SDS011;4276;49.354;6.804;2023-07-24T13:19:17;2.15;;;1.48;;
8478;SDS011;4276;49.354;6.804;2023-07-24T13:21:46;2.53;;;1.98;;
8478;SDS011;4276;49.354;6.804;2023-07-24T13:24:13;1.77;;;1.67;;
8478;SDS011;4276;49.354;6.804;2023-07-24T13:26:40;1.92;;;1.60;;
8478;SDS011;4276;49.354;6.804;2023-07-24T13:29:06;2.10;;;1.58;;
8478;SDS011;4276;49.354;6.804;2023-07-24T13:31:33;4.63;;;1.73;;
8478;SDS011;4276;49.354;6.804;2023-07-24T13:33:59;1.92;;;1.60;;
8478;SDS011;4276;49.354;6.804;2023-07-24T13:36:26;1.52;;;1.38;;
8478;SDS011;4276;49.354;6.804;2023-07-24T13:38:53;2.28;;;1.95;;
8478;SDS011;4276;49.354;6.804;2023-07-24T13:41:19;2.33;;;1.90;;
8478;SDS011;4276;49.354;6.804;2023-07-24T13:43:46;2.85;;;1.30;;
8478;SDS011;4276;49.354;6.804;2023-07-24T13:46:12;2.40;;;1.80;;
8478;SDS011;4276;49.354;6.804;2023-07-24T13:48:39;3.17;;;1.65;;
8478;SDS011;4276;49.354;6.804;2023-07-24T13:51:05;2.78;;;1.83;;
8478;SDS011;4276;49.354;6.804;2023-07-24T13:53:32;1.58;;;1.40;;
8478;SDS011;4276;49.354;6.804;2023-07-24T13:55:58;1.67;;;1.58;;
8478;SDS011;4276;49.354;6.804;2023-07-24T13:58:25;3.67;;;1.30;;
8478;SDS011;4276;49.354;6.804;2023-07-24T14:00:51;1.25;;;1.20;;
8478;SDS011;4276;49.354;6.804;2023-07-24T14:03:18;1.55;;;1.40;;
8478;SDS011;4276;49.354;6.804;2023-07-24T14:05:45;1.50;;;1.40;;
8478;SDS011;4276;49.354;6.804;2023-07-24T14:08:11;2.05;;;1.70;;
8478;SDS011;4276;49.354;6.804;2023-07-24T14:10:38;1.60;;;1.50;;
8478;SDS011;4276;49.354;6.804;2023-07-24T14:13:04;1.50;;;1.40;;
8478;SDS011;4276;49.354;6.804;2023-07-24T14:15:31;3.15;;;1.50;;
8478;SDS011;4276;49.354;6.804;2023-07-24T14:17:57;1.98;;;1.67;;
8478;SDS011;4276;49.354;6.804;2023-07-24T14:20:24;3.42;;;1.48;;
8478;SDS011;4276;49.354;6.804;2023-07-24T14:22:50;1.65;;;1.52;;
8478;SDS011;4276;49.354;6.804;2023-07-24T14:25:17;2.05;;;1.80;;
8478;SDS011;4276;49.354;6.804;2023-07-24T14:27:43;2.05;;;1.85;;
8478;SDS011;4276;49.354;6.804;2023-07-24T14:30:10;1.80;;;1.70;;
8478;SDS011;4276;49.354;6.804;2023-07-24T14:32:37;1.95;;;1.73;;
8478;SDS011;4276;49.354;6.804;2023-07-24T14:35:03;1.55;;;1.40;;
8478;SDS011;4276;49.354;6.804;2023-07-24T14:37:30;1.70;;;1.60;;
8478;SDS011;4276;49.354;6.804;2023-07-24T14:39:57;1.67;;;1.58;;
8478;SDS011;4276;49.354;6.804;2023-07-24T14:42:23;2.28;;;1.60;;
8478;SDS011;4276;49.354;6.804;2023-07-24T14:44:50;2.17;;;1.67;;
8478;SDS011;4276;49.354;6.804;2023-07-24T14:47:16;1.80;;;1.70;;
8478;SDS011;4276;49.354;6.804;2023-07-24T14:49:43;2.00;;;1.90;;
8478;SDS011;4276;49.354;6.804;2023-07-24T14:52:09;2.70;;;1.77;;
8478;SDS011;4276;49.354;6.804;2023-07-24T14:54:36;1.83;;;1.73;;
8478;SDS011;4276;49.354;6.804;2023-07-24T14:57:05;1.90;;;1.80;;
8478;SDS011;4276;49.354;6.804;2023-07-24T14:59:49;2.15;;;1.90;;
8478;SDS011;4276;49.354;6.804;2023-07-24T15:02:16;2.33;;;2.13;;
8478;SDS011;4276;49.354;6.804;2023-07-24T15:04:42;2.78;;;2.40;;
8478;SDS011;4276;49.354;6.804;2023-07-24T15:07:09;2.15;;;2.00;;
8478;SDS011;4276;49.354;6.804;2023-07-24T15:09:35;1.70;;;1.60;;
8478;SDS011;4276;49.354;6.804;2023-07-24T15:12:02;2.00;;;1.80;;
8478;SDS011;4276;49.354;6.804;2023-07-24T15:14:29;2.60;;;2.08;;
8478;SDS011;4276;49.354;6.804;2023-07-24T15:16:56;2.38;;;2.00;;
8478;SDS011;4276;49.354;6.804;2023-07-24T15:19:22;2.50;;;2.00;;
8478;SDS011;4276;49.354;6.804;2023-07-24T15:21:48;2.08;;;1.90;;
8478;SDS011;4276;49.354;6.804;2023-07-24T15:24:15;2.40;;;2.10;;
8478;SDS011;4276;49.354;6.804;2023-07-24T15:26:44;2.83;;;2.10;;
8478;SDS011;4276;49.354;6.804;2023-07-24T15:29:11;9.10;;;2.60;;